Date,TemperatureHighF,TemperatureAvgF,TemperatureLowF,DewpointHighF,DewpointAvgF,DewpointLowF,HumidityHigh,HumidityAvg,HumidityLow,PressureMaxIn,PressureMinIn,WindSpeedMaxMPH,WindSpeedAvgMPH,GustSpeedMaxMPH,PrecipitationSumIn
2013-1-1,28.0,23.5,19.0,23.0,16.4,11.0,93,75,58,0.00,40.00,23,18,35,0.00
2013-1-2,25.0,19.9,15.0,17.0,10.4,6.0,84,67,47,0.00,40.00,23,17,40,0.00
2013-1-3,43.0,31.8,20.0,9.0,0.3,-5.0,61,29,13,0.00,40.00,23,16,30,0.00
2013-1-4,42.0,37.5,33.0,15.0,5.0,-11.0,46,27,13,0.00,40.00,27,17,38,0.00
2013-1-5,36.0,30.9,26.0,19.0,16.7,14.0,68,56,46,0.00,40.00,18,15,28,0.00
2013-1-6,40.0,35.5,28.0,19.0,9.1,-7.0,51,34,13,0.00,40.00,22,16,27,0.00
2013-1-7,39.0,33.5,31.0,25.0,18.3,15.0,72,53,43,0.00,40.00,18,12,25,0.00
2013-1-8,40.0,34.9,28.0,24.0,17.5,11.0,65,49,39,0.00,40.00,27,18,41,0.00
2013-1-9,51.0,41.8,29.0,24.0,18.9,14.0,59,41,23,0.00,40.00,23,19,32,0.00
2013-1-10,50.0,34.5,14.0,25.0,17.8,4.0,96,57,18,0.00,40.00,19,13,26,0.00
2013-1-11,8.0,3.0,-1.0,4.0,-1.7,-6.0,85,80,78,0.00,40.00,16,13,23,0.00
2013-1-12,11.0,4.0,-1.0,7.0,-0.5,-6.0,83,80,78,0.00,40.00,12,7,19,0.00
2013-1-13,11.0,7.9,5.0,7.0,3.8,1.0,84,83,80,0.00,40.00,19,11,26,0.00
2013-1-14,17.0,11.4,8.0,7.0,2.9,-1.0,84,69,50,0.00,40.00,24,18,34,0.00
2013-1-15,32.0,25.8,16.0,21.0,17.4,2.0,88,71,53,0.00,40.00,33,28,47,0.00
2013-1-16,40.0,34.6,31.0,20.0,17.8,15.0,61,50,41,0.00,40.00,35,22,54,0.00
2013-1-17,45.0,37.3,31.0,18.0,15.1,13.0,57,41,27,0.00,40.00,27,19,35,0.00
2013-1-18,48.0,43.4,39.0,16.0,12.1,10.0,33,28,24,0.00,40.00,25,19,39,0.00
2013-1-19,40.0,31.4,24.0,22.0,17.3,12.0,81,58,33,0.00,40.00,19,12,26,0.00
2013-1-20,33.0,14.2,4.0,19.0,8.9,-1.0,92,81,49,0.00,40.00,25,9,32,0.00
2013-1-21,30.0,16.9,7.0,18.0,10.5,3.0,86,77,48,0.00,40.00,14,6,18,0.00
2013-1-22,44.0,35.1,29.0,15.0,10.0,6.0,50,35,25,0.00,40.00,18,11,24,0.00
2013-1-23,30.0,20.1,12.0,16.0,12.4,7.0,90,73,37,0.00,40.00,22,9,29,0.00
2013-1-24,47.0,39.2,24.0,23.0,15.7,7.0,72,41,20,0.00,40.00,22,15,31,0.00
2013-1-25,48.0,39.7,31.0,22.0,18.8,16.0,55,43,32,0.00,40.00,16,12,19,0.00
2013-1-26,54.0,46.5,42.0,26.0,21.9,17.0,46,38,31,0.00,40.00,16,10,19,0.00
2013-1-27,42.0,31.4,26.0,31.0,26.6,22.0,99,85,45,0.00,40.00,21,11,32,0.00
2013-1-28,31.0,25.6,23.0,24.0,19.7,8.0,95,79,53,0.00,40.00,16,12,20,0.08
2013-1-29,24.0,12.7,-3.0,18.0,4.6,-8.0,87,71,51,0.00,40.00,26,15,35,0.01
2013-1-30,25.0,13.8,-3.0,22.0,9.7,-8.0,91,84,70,0.00,40.00,23,16,32,0.00
2013-1-31,29.0,9.7,-6.0,24.0,4.9,-12.0,88,81,75,0.00,40.00,23,12,26,0.00